createdAt,value
2019-02-09T00:01:10.570Z,4.37
2019-02-09T00:03:39.371Z,6.50
2019-02-09T00:06:08.455Z,5.13
2019-02-09T00:08:37.377Z,5.90
2019-02-09T00:11:06.843Z,4.87
2019-02-09T00:13:35.833Z,4.90
2019-02-09T00:16:06.153Z,14.53
2019-02-09T00:18:35.193Z,7.43
2019-02-09T00:21:04.311Z,7.57
2019-02-09T00:23:33.227Z,3.70
2019-02-09T00:26:02.115Z,4.20
2019-02-09T00:28:32.563Z,11.00
2019-02-09T00:31:01.617Z,5.13
2019-02-09T00:33:30.537Z,6.97
2019-02-09T00:35:59.527Z,7.90
2019-02-09T00:38:28.454Z,8.03
2019-02-09T00:40:57.427Z,16.60
2019-02-09T00:43:26.507Z,12.60
2019-02-09T00:45:55.528Z,12.23
2019-02-09T00:48:24.499Z,6.33
2019-02-09T00:50:53.332Z,6.67
2019-02-09T00:53:22.458Z,12.03
2019-02-09T00:55:51.457Z,10.73
2019-02-09T00:58:20.385Z,12.00
2019-02-09T01:00:49.203Z,9.40
2019-02-09T01:03:18.533Z,16.93
2019-02-09T01:05:47.608Z,13.33
2019-02-09T01:08:17.068Z,9.53
2019-02-09T01:10:46.078Z,8.60
2019-02-09T01:13:15.071Z,4.70
2019-02-09T01:15:44.203Z,8.07
2019-02-09T01:18:13.194Z,8.47
2019-02-09T01:20:42.206Z,7.17
2019-02-09T01:23:11.097Z,7.30
2019-02-09T01:25:40.014Z,15.13
2019-02-09T01:28:09.006Z,18.33
2019-02-09T01:30:37.978Z,7.00
2019-02-09T01:33:06.857Z,10.87
2019-02-09T01:35:35.826Z,8.40
2019-02-09T01:38:05.171Z,12.87
2019-02-09T01:40:34.108Z,8.30
2019-02-09T01:43:03.080Z,12.60
2019-02-09T01:45:32.378Z,10.80
2019-02-09T01:48:01.362Z,13.90
2019-02-09T01:50:31.460Z,9.03
2019-02-09T01:53:00.786Z,16.77
2019-02-09T01:55:29.967Z,9.33
2019-02-09T01:57:59.232Z,8.97
2019-02-09T02:00:30.620Z,10.93
2019-02-09T02:02:59.571Z,15.30
2019-02-09T02:05:28.457Z,20.73
2019-02-09T02:07:57.484Z,13.33
2019-02-09T02:10:31.649Z,16.03
2019-02-09T02:13:01.088Z,12.00
2019-02-09T02:15:31.528Z,11.23
2019-02-09T02:18:00.891Z,5.93
2019-02-09T02:20:30.497Z,9.13
2019-02-09T02:22:59.511Z,12.07
2019-02-09T02:25:28.461Z,6.40
2019-02-09T02:27:57.462Z,9.67
2019-02-09T02:30:31.048Z,10.53
2019-02-09T02:33:00.174Z,9.00
2019-02-09T02:35:29.440Z,11.63
2019-02-09T02:37:58.569Z,12.83
2019-02-09T02:40:27.533Z,9.43
2019-02-09T02:42:56.527Z,14.87
2019-02-09T02:45:26.019Z,12.00
2019-02-09T02:47:55.055Z,11.77
2019-02-09T02:50:24.033Z,19.73
2019-02-09T02:52:53.092Z,9.33
2019-02-09T02:55:23.734Z,14.90
2019-02-09T02:57:53.425Z,15.53
2019-02-09T03:00:31.712Z,13.83
2019-02-09T03:02:55.314Z,11.60
2019-02-09T03:05:24.845Z,8.10
2019-02-09T03:07:54.131Z,11.00
2019-02-09T03:10:23.101Z,12.00
2019-02-09T03:12:52.454Z,9.77
2019-02-09T03:15:23.274Z,16.47
2019-02-09T03:17:52.146Z,9.80
2019-02-09T03:20:21.252Z,15.77
2019-02-09T03:22:50.149Z,12.50
2019-02-09T03:25:21.836Z,12.67
2019-02-09T03:27:50.842Z,17.33
2019-02-09T03:30:20.020Z,14.90
2019-02-09T03:32:49.018Z,15.27
2019-02-09T03:35:18.430Z,19.37
2019-02-09T03:37:47.601Z,11.17
2019-02-09T03:40:17.738Z,18.70
2019-02-09T03:42:47.292Z,17.03
2019-02-09T03:45:18.936Z,15.67
2019-02-09T03:47:47.979Z,17.90
2019-02-09T03:50:17.546Z,19.10
2019-02-09T03:52:46.531Z,26.93
2019-02-09T03:55:15.505Z,14.27
2019-02-09T03:57:44.483Z,14.33
2019-02-09T04:00:21.567Z,21.20
2019-02-09T04:02:50.582Z,27.70
2019-02-09T04:05:19.658Z,17.80
2019-02-09T04:07:48.801Z,17.63
2019-02-09T04:10:19.766Z,21.53
2019-02-09T04:12:48.810Z,15.53
2019-02-09T04:15:19.508Z,30.37
2019-02-09T04:17:48.613Z,14.80
2019-02-09T04:20:18.317Z,19.30
2019-02-09T04:22:47.294Z,18.90
2019-02-09T04:25:17.254Z,20.43
2019-02-09T04:27:46.198Z,17.97
2019-02-09T04:30:26.177Z,14.87
2019-02-09T04:32:55.359Z,14.77
2019-02-09T04:35:24.728Z,15.20
2019-02-09T04:37:54.066Z,22.97
2019-02-09T04:40:25.199Z,14.33
2019-02-09T04:42:54.159Z,18.43
2019-02-09T04:45:23.421Z,19.53
2019-02-09T04:47:52.392Z,14.57
2019-02-09T04:50:21.433Z,20.93
2019-02-09T04:52:50.288Z,10.20
2019-02-09T04:55:21.101Z,24.80
2019-02-09T04:57:50.405Z,23.27
2019-02-09T05:00:21.536Z,17.40
2019-02-09T05:02:51.054Z,26.43
2019-02-09T05:05:20.022Z,16.00
2019-02-09T05:07:48.973Z,20.63
2019-02-09T05:10:18.260Z,19.87
2019-02-09T05:12:47.078Z,17.47
2019-02-09T05:15:16.601Z,19.17
2019-02-09T05:17:45.578Z,23.30
2019-02-09T05:20:19.279Z,18.90
2019-02-09T05:22:48.232Z,28.07
2019-02-09T05:25:17.626Z,21.00
2019-02-09T05:27:46.603Z,24.47
2019-02-09T05:30:17.997Z,23.57
2019-02-09T05:32:47.172Z,26.67
2019-02-09T05:35:16.254Z,15.33
2019-02-09T05:37:45.156Z,26.90
2019-02-09T05:40:15.997Z,15.33
2019-02-09T05:42:44.987Z,19.70
2019-02-09T05:45:16.564Z,23.83
2019-02-09T05:47:45.715Z,16.93
2019-02-09T05:50:16.273Z,23.30
2019-02-09T05:52:45.225Z,16.73
2019-02-09T05:55:14.281Z,15.00
2019-02-09T05:57:43.300Z,23.07
2019-02-09T06:00:20.242Z,19.40
2019-02-09T06:02:49.183Z,21.37
2019-02-09T06:05:37.279Z,24.57
2019-02-09T06:08:06.441Z,21.97
2019-02-09T06:10:35.492Z,13.80
2019-02-09T06:13:04.874Z,17.67
2019-02-09T06:15:33.838Z,17.70
2019-02-09T06:18:02.793Z,16.00
2019-02-09T06:20:31.867Z,15.90
2019-02-09T06:23:00.808Z,23.13
2019-02-09T06:25:29.816Z,25.30
2019-02-09T06:27:58.711Z,18.20
2019-02-09T06:30:29.004Z,17.77
2019-02-09T06:32:57.995Z,18.37
2019-02-09T06:35:27.079Z,21.17
2019-02-09T06:37:56.061Z,17.83
2019-02-09T06:40:25.485Z,21.33
2019-02-09T06:42:54.458Z,29.50
2019-02-09T06:45:23.597Z,21.30
2019-02-09T06:47:52.669Z,21.03
2019-02-09T06:50:27.436Z,28.60
2019-02-09T06:52:56.382Z,20.27
2019-02-09T06:55:25.364Z,20.77
2019-02-09T06:57:54.323Z,18.30
2019-02-09T07:00:23.393Z,26.00
2019-02-09T07:02:52.436Z,16.23
2019-02-09T07:05:21.409Z,31.37
2019-02-09T07:07:50.379Z,24.03
2019-02-09T07:10:21.301Z,28.17
2019-02-09T07:12:50.167Z,25.47
2019-02-09T07:15:24.618Z,32.23
2019-02-09T07:17:54.319Z,35.27
2019-02-09T07:20:23.277Z,30.83
2019-02-09T07:22:52.166Z,47.83
2019-02-09T07:25:21.727Z,23.70
2019-02-09T07:27:50.781Z,29.77
2019-02-09T07:30:22.145Z,33.23
2019-02-09T07:32:51.318Z,40.40
2019-02-09T07:35:20.262Z,24.07
2019-02-09T07:37:49.138Z,27.63
2019-02-09T07:40:18.948Z,30.10
2019-02-09T07:42:47.912Z,41.93
2019-02-09T07:45:18.718Z,28.73
2019-02-09T07:47:47.709Z,26.30
2019-02-09T07:50:17.550Z,26.70
2019-02-09T07:52:46.565Z,27.00
2019-02-09T07:55:16.134Z,28.90
2019-02-09T07:57:45.048Z,27.93
2019-02-09T08:00:22.329Z,28.83
2019-02-09T08:02:51.478Z,28.07
2019-02-09T08:05:20.903Z,24.93
2019-02-09T08:07:49.988Z,29.80
2019-02-09T08:10:20.997Z,32.73
2019-02-09T08:12:50.726Z,29.27
2019-02-09T08:15:21.743Z,32.33
2019-02-09T08:17:50.869Z,31.00
2019-02-09T08:20:20.898Z,20.07
2019-02-09T08:22:50.394Z,29.20
2019-02-09T08:25:21.848Z,27.93
2019-02-09T08:27:51.675Z,27.43
2019-02-09T08:30:32.283Z,32.93
2019-02-09T08:33:01.428Z,25.60
2019-02-09T08:35:30.420Z,24.33
2019-02-09T08:37:59.366Z,19.83
2019-02-09T08:40:28.541Z,30.17
2019-02-09T08:42:57.573Z,30.10
2019-02-09T08:45:26.641Z,17.33
2019-02-09T08:47:55.910Z,29.63
2019-02-09T08:50:30.272Z,27.23
2019-02-09T08:52:59.269Z,37.00
2019-02-09T08:55:28.251Z,27.23
2019-02-09T08:57:57.263Z,32.20
2019-02-09T09:00:28.124Z,32.83
2019-02-09T09:02:57.084Z,24.20
2019-02-09T09:05:26.214Z,40.23
2019-02-09T09:07:55.246Z,28.70
2019-02-09T09:10:25.269Z,30.27
2019-02-09T09:12:54.269Z,30.80
2019-02-09T09:15:28.990Z,28.73
2019-02-09T09:17:58.374Z,20.77
2019-02-09T09:20:29.841Z,33.27
2019-02-09T09:22:58.892Z,26.90
2019-02-09T09:25:27.761Z,30.97
2019-02-09T09:27:56.704Z,18.50
2019-02-09T09:30:26.465Z,25.40
2019-02-09T09:32:55.648Z,33.10
2019-02-09T09:35:24.605Z,30.97
2019-02-09T09:37:53.724Z,23.67
2019-02-09T09:40:27.698Z,33.10
2019-02-09T09:42:56.659Z,30.20
2019-02-09T09:45:27.670Z,28.63
2019-02-09T09:47:56.733Z,26.63
2019-02-09T09:50:27.146Z,20.43
2019-02-09T09:52:56.131Z,33.67
2019-02-09T09:55:25.355Z,38.03
2019-02-09T09:57:54.256Z,32.53
2019-02-09T10:00:23.893Z,21.10
2019-02-09T10:02:52.988Z,28.87
2019-02-09T10:05:21.977Z,21.63
2019-02-09T10:07:51.058Z,19.87
2019-02-09T10:10:20.187Z,28.20
2019-02-09T10:12:50.150Z,20.17
2019-02-09T10:15:21.029Z,25.23
2019-02-09T10:17:50.632Z,28.00
2019-02-09T10:20:21.157Z,24.40
2019-02-09T10:22:50.470Z,24.40
2019-02-09T10:25:20.099Z,38.63
2019-02-09T10:27:49.787Z,32.23
2019-02-09T10:30:23.870Z,22.10
2019-02-09T10:32:53.289Z,34.60
2019-02-09T10:35:22.535Z,22.13
2019-02-09T10:37:52.042Z,24.50
2019-02-09T10:40:23.438Z,28.80
2019-02-09T10:42:53.211Z,25.60
2019-02-09T10:45:24.260Z,15.93
2019-02-09T10:47:53.237Z,24.60
2019-02-09T10:50:24.853Z,19.37
2019-02-09T10:52:53.922Z,28.53
2019-02-09T10:55:23.083Z,21.83
2019-02-09T10:57:55.357Z,26.40
2019-02-09T11:00:30.294Z,25.97
2019-02-09T11:02:59.282Z,27.23
2019-02-09T11:05:28.343Z,24.93
2019-02-09T11:07:57.234Z,19.30
2019-02-09T11:10:26.338Z,18.67
2019-02-09T11:12:55.313Z,23.57
2019-02-09T11:15:24.495Z,18.40
2019-02-09T11:17:53.562Z,25.40
2019-02-09T11:20:22.671Z,25.97
2019-02-09T11:22:52.052Z,28.53
2019-02-09T11:25:21.301Z,21.10
2019-02-09T11:27:50.270Z,25.60
2019-02-09T11:30:21.685Z,25.30
2019-02-09T11:32:51.083Z,28.27
2019-02-09T11:35:20.355Z,26.83
2019-02-09T11:37:49.738Z,26.17
2019-02-09T11:40:19.879Z,22.13
2019-02-09T11:42:48.898Z,26.47
2019-02-09T11:45:24.068Z,26.70
2019-02-09T11:47:53.021Z,16.07
2019-02-09T11:50:22.085Z,18.27
2019-02-09T11:52:51.632Z,33.67
2019-02-09T11:55:20.860Z,17.90
2019-02-09T11:57:50.352Z,22.73
2019-02-09T12:00:24.493Z,27.60
2019-02-09T12:02:53.715Z,24.93
2019-02-09T12:05:22.779Z,18.07
2019-02-09T12:07:51.769Z,32.60
2019-02-09T12:10:21.024Z,18.93
2019-02-09T12:12:50.183Z,23.43
2019-02-09T12:15:22.357Z,20.33
2019-02-09T12:17:54.234Z,16.90
2019-02-09T12:20:23.432Z,23.87
2019-02-09T12:22:52.653Z,16.30
2019-02-09T12:25:28.323Z,25.30
2019-02-09T12:27:57.242Z,22.00
2019-02-09T12:30:27.740Z,22.57
2019-02-09T12:32:56.612Z,22.83
2019-02-09T12:35:25.596Z,26.43
2019-02-09T12:37:54.583Z,23.43
2019-02-09T12:40:26.010Z,20.47
2019-02-09T12:42:55.007Z,33.23
2019-02-09T12:45:24.808Z,25.07
2019-02-09T12:47:53.828Z,29.33
2019-02-09T12:50:24.585Z,36.33
2019-02-09T12:52:53.802Z,30.50
2019-02-09T12:55:22.784Z,29.93
2019-02-09T12:57:51.824Z,31.47
2019-02-09T13:00:25.935Z,19.87
2019-02-09T13:02:55.523Z,24.33
2019-02-09T13:05:24.558Z,26.63
2019-02-09T13:07:53.742Z,25.47
2019-02-09T13:10:22.722Z,21.17
2019-02-09T13:12:51.837Z,26.63
2019-02-09T13:15:25.843Z,29.53
2019-02-09T13:17:55.261Z,24.90
2019-02-09T13:20:25.758Z,22.83
2019-02-09T13:22:55.597Z,25.97
2019-02-09T13:25:24.488Z,24.47
2019-02-09T13:27:53.545Z,24.50
2019-02-09T13:30:27.974Z,19.77
2019-02-09T13:32:57.047Z,22.53
2019-02-09T13:35:26.086Z,25.77
2019-02-09T13:37:55.126Z,23.57
2019-02-09T13:40:24.412Z,29.23
2019-02-09T13:42:53.529Z,18.77
2019-02-09T13:45:27.582Z,29.53
2019-02-09T13:47:57.738Z,23.53
2019-02-09T13:50:27.537Z,29.30
2019-02-09T13:52:56.658Z,23.20
2019-02-09T13:55:25.665Z,21.77
2019-02-09T13:57:54.649Z,22.43
2019-02-09T14:00:24.021Z,23.57
2019-02-09T14:02:53.386Z,17.73
2019-02-09T14:05:22.370Z,22.93
2019-02-09T14:07:51.415Z,25.30
2019-02-09T14:10:21.003Z,30.63
2019-02-09T14:12:50.053Z,28.17
2019-02-09T14:15:24.054Z,18.60
2019-02-09T14:17:53.370Z,15.93
2019-02-09T14:20:22.778Z,23.87
2019-02-09T14:22:51.957Z,26.43
2019-02-09T14:25:21.323Z,30.33
2019-02-09T14:27:52.470Z,20.27
2019-02-09T14:30:23.426Z,33.13
2019-02-09T14:32:53.036Z,25.43
2019-02-09T14:35:22.713Z,21.27
2019-02-09T14:37:51.825Z,20.03
2019-02-09T14:40:22.552Z,34.63
2019-02-09T14:42:51.663Z,34.30
2019-02-09T14:45:22.917Z,26.00
2019-02-09T14:47:52.924Z,27.07
2019-02-09T14:50:22.205Z,28.80
2019-02-09T14:52:51.089Z,28.83
2019-02-09T14:55:28.677Z,31.60
2019-02-09T14:57:57.654Z,29.57
2019-02-09T15:00:29.176Z,39.50
2019-02-09T15:02:58.451Z,22.60
2019-02-09T15:05:27.558Z,28.23
2019-02-09T15:07:56.536Z,25.90
2019-02-09T15:10:25.497Z,21.60
2019-02-09T15:12:54.462Z,27.33
2019-02-09T15:15:32.121Z,30.97
2019-02-09T15:18:01.303Z,25.47
2019-02-09T15:20:33.186Z,30.23
2019-02-09T15:23:02.083Z,32.43
2019-02-09T15:25:31.092Z,32.23
2019-02-09T15:28:00.069Z,32.90
2019-02-09T15:30:30.882Z,27.37
2019-02-09T15:32:59.912Z,30.70
2019-02-09T15:35:28.770Z,25.90
2019-02-09T15:37:57.866Z,31.87
2019-02-09T15:40:26.853Z,25.77
2019-02-09T15:42:55.801Z,23.37
2019-02-09T15:45:25.022Z,25.30
2019-02-09T15:47:53.989Z,20.83
2019-02-09T15:50:23.017Z,21.70
2019-02-09T15:52:52.049Z,34.70
2019-02-09T15:55:21.049Z,22.00
2019-02-09T15:57:50.269Z,20.43
2019-02-09T16:00:21.241Z,30.50
2019-02-09T16:02:50.945Z,29.13
2019-02-09T16:05:20.117Z,28.20
2019-02-09T16:07:49.041Z,24.53
2019-02-09T16:10:18.982Z,21.80
2019-02-09T16:12:48.142Z,22.87
2019-02-09T16:15:22.234Z,23.03
2019-02-09T16:17:51.437Z,32.20
2019-02-09T16:20:21.406Z,37.40
2019-02-09T16:22:50.568Z,25.70
2019-02-09T16:25:19.482Z,25.47
2019-02-09T16:27:48.597Z,29.33
2019-02-09T16:30:19.741Z,19.47
2019-02-09T16:32:48.801Z,28.57
2019-02-09T16:35:19.335Z,37.07
2019-02-09T16:37:48.614Z,25.37
2019-02-09T16:40:19.476Z,27.00
2019-02-09T16:42:48.701Z,24.17
2019-02-09T16:45:22.727Z,19.33
2019-02-09T16:47:51.904Z,20.37
2019-02-09T16:50:21.620Z,31.23
2019-02-09T16:52:50.882Z,22.70
2019-02-09T16:55:20.095Z,20.57
2019-02-09T16:57:49.245Z,23.77
2019-02-09T17:00:39.443Z,26.00
2019-02-09T17:03:09.358Z,15.90
2019-02-09T17:05:38.917Z,27.53
2019-02-09T17:08:08.280Z,21.40
2019-02-09T17:10:37.554Z,29.77
2019-02-09T17:13:07.198Z,20.80
2019-02-09T17:15:36.244Z,25.70
2019-02-09T17:18:06.079Z,28.00
2019-02-09T17:20:35.141Z,34.73
2019-02-09T17:23:04.342Z,30.83
2019-02-09T17:25:33.351Z,46.37
2019-02-09T17:28:02.459Z,50.38
2019-02-09T17:30:31.697Z,60.13
2019-02-09T17:33:00.714Z,42.60
2019-02-09T17:35:29.737Z,36.20
2019-02-09T17:38:11.684Z,45.80
2019-02-09T17:40:43.241Z,40.80
2019-02-09T17:43:12.470Z,33.03
2019-02-09T17:45:56.838Z,77.50
2019-02-09T17:48:25.841Z,63.20
2019-02-09T17:50:54.662Z,47.70
2019-02-09T17:53:23.504Z,81.27
2019-02-09T17:55:52.531Z,40.20
2019-02-09T17:58:21.509Z,20.90
2019-02-09T18:00:54.243Z,23.92
2019-02-09T18:03:23.218Z,31.73
2019-02-09T18:05:52.945Z,28.50
2019-02-09T18:08:22.096Z,31.55
2019-02-09T18:10:51.106Z,24.53
2019-02-09T18:13:20.077Z,26.68
2019-02-09T18:15:49.058Z,28.17
2019-02-09T18:18:18.037Z,29.50
2019-02-09T18:20:46.927Z,29.33
2019-02-09T18:23:15.778Z,30.87
2019-02-09T18:25:44.738Z,23.80
2019-02-09T18:28:13.722Z,31.63
2019-02-09T18:30:42.597Z,32.27
2019-02-09T18:33:11.787Z,26.83
2019-02-09T18:35:40.852Z,21.93
2019-02-09T18:38:09.865Z,28.63
2019-02-09T18:40:38.967Z,30.00
2019-02-09T18:43:07.965Z,22.27
2019-02-09T18:45:36.951Z,29.40
2019-02-09T18:48:06.211Z,35.90
2019-02-09T18:50:35.186Z,31.73
2019-02-09T18:53:04.129Z,32.57
2019-02-09T18:55:33.073Z,25.50
2019-02-09T18:58:01.889Z,28.93
2019-02-09T19:00:32.492Z,27.63
2019-02-09T19:03:01.753Z,39.07
2019-02-09T19:05:30.665Z,35.63
2019-02-09T19:07:59.543Z,29.70
2019-02-09T19:10:28.713Z,30.30
2019-02-09T19:12:57.690Z,34.63
2019-02-09T19:15:27.533Z,25.47
2019-02-09T19:17:56.886Z,28.03
2019-02-09T19:20:31.434Z,35.77
2019-02-09T19:23:00.532Z,34.17
2019-02-09T19:25:29.576Z,22.57
2019-02-09T19:27:58.627Z,27.20
2019-02-09T19:30:27.742Z,24.63
2019-02-09T19:32:56.734Z,19.90
2019-02-09T19:35:25.621Z,28.33
2019-02-09T19:37:54.557Z,29.27
2019-02-09T19:40:23.675Z,24.50
2019-02-09T19:42:52.610Z,34.77
2019-02-09T19:45:23.689Z,32.80
2019-02-09T19:47:52.718Z,29.03
2019-02-09T19:50:21.712Z,23.57
2019-02-09T19:52:50.600Z,26.93
2019-02-09T19:55:21.325Z,23.30
2019-02-09T19:57:50.443Z,21.23
2019-02-09T20:00:24.734Z,21.90
2019-02-09T20:02:53.711Z,20.17
2019-02-09T20:05:22.660Z,18.67
2019-02-09T20:07:51.642Z,29.97
2019-02-09T20:10:25.654Z,21.70
2019-02-09T20:12:54.702Z,24.77
2019-02-09T20:15:23.798Z,19.20
2019-02-09T20:17:52.766Z,19.00
2019-02-09T20:20:21.797Z,22.97
2019-02-09T20:22:50.611Z,18.63
2019-02-09T20:25:20.611Z,31.27
2019-02-09T20:27:49.600Z,26.83
2019-02-09T20:30:21.243Z,19.07
2019-02-09T20:32:50.375Z,15.37
2019-02-09T20:35:27.352Z,24.63
2019-02-09T20:37:51.166Z,18.03
2019-02-09T20:40:28.469Z,21.47
2019-02-09T20:43:02.218Z,24.67
2019-02-09T20:45:28.167Z,19.07
2019-02-09T20:47:57.179Z,26.80
2019-02-09T20:50:26.176Z,26.53
2019-02-09T20:52:55.090Z,21.03
2019-02-09T20:55:24.075Z,26.40
2019-02-09T20:57:53.072Z,23.20
2019-02-09T21:00:22.911Z,27.50
2019-02-09T21:02:52.014Z,29.60
2019-02-09T21:05:20.979Z,20.33
2019-02-09T21:07:50.003Z,22.70
2019-02-09T21:10:23.978Z,17.50
2019-02-09T21:12:54.452Z,21.47
2019-02-09T21:15:25.187Z,10.37
2019-02-09T21:17:54.137Z,19.70
2019-02-09T21:20:23.103Z,25.00
2019-02-09T21:22:52.147Z,15.53
2019-02-09T21:25:24.242Z,23.53
2019-02-09T21:27:53.257Z,12.33
2019-02-09T21:30:22.341Z,19.37
2019-02-09T21:32:52.508Z,15.20
2019-02-09T21:35:21.545Z,14.10
2019-02-09T21:37:50.546Z,18.97
2019-02-09T21:40:21.205Z,24.00
2019-02-09T21:42:50.421Z,16.43
2019-02-09T21:45:20.619Z,19.70
2019-02-09T21:47:50.110Z,20.60
2019-02-09T21:50:27.202Z,21.20
2019-02-09T21:52:56.261Z,20.57
2019-02-09T21:55:25.342Z,17.33
2019-02-09T21:57:54.298Z,25.37
2019-02-09T22:00:28.904Z,13.63
2019-02-09T22:02:57.993Z,17.77
2019-02-09T22:05:26.963Z,16.63
2019-02-09T22:07:55.929Z,19.90
2019-02-09T22:10:30.241Z,19.77
2019-02-09T22:12:55.998Z,14.23
2019-02-09T22:15:26.217Z,15.40
2019-02-09T22:17:55.209Z,17.10
2019-02-09T22:20:24.147Z,18.23
2019-02-09T22:22:53.616Z,18.97
2019-02-09T22:25:23.653Z,16.00
2019-02-09T22:27:53.026Z,16.03
2019-02-09T22:30:23.983Z,11.83
2019-02-09T22:32:53.122Z,25.10
2019-02-09T22:35:22.507Z,25.33
2019-02-09T22:37:51.658Z,14.27
2019-02-09T22:40:22.542Z,12.50
2019-02-09T22:42:51.454Z,16.73
2019-02-09T22:45:21.358Z,17.50
2019-02-09T22:47:50.647Z,17.77
2019-02-09T22:50:21.975Z,15.97
2019-02-09T22:52:51.570Z,13.77
2019-02-09T22:55:20.693Z,14.80
2019-02-09T22:57:49.655Z,17.53
2019-02-09T23:00:53.004Z,12.20
2019-02-09T23:03:34.363Z,19.10
2019-02-09T23:06:37.135Z,17.20
2019-02-09T23:09:08.646Z,19.10
2019-02-09T23:11:37.542Z,22.77
2019-02-09T23:14:06.569Z,19.77
2019-02-09T23:16:35.553Z,13.63
2019-02-09T23:19:04.911Z,19.57
2019-02-09T23:21:33.994Z,16.13
2019-02-09T23:24:02.900Z,8.03
2019-02-09T23:26:31.780Z,15.80
2019-02-09T23:29:00.641Z,12.43
2019-02-09T23:31:29.456Z,13.37
2019-02-09T23:33:58.298Z,12.13
2019-02-09T23:36:27.092Z,9.17
2019-02-09T23:38:56.081Z,13.93
2019-02-09T23:41:24.886Z,9.93
2019-02-09T23:43:53.829Z,12.47
2019-02-09T23:46:22.625Z,11.83
2019-02-09T23:48:51.441Z,9.87
2019-02-09T23:51:20.413Z,12.70
2019-02-09T23:53:49.267Z,11.73
2019-02-09T23:56:18.195Z,14.83
2019-02-09T23:58:47.029Z,15.03
